Time;durP1;ratioP1;P1;durP2;ratioP2;P2;SDS_P1;SDS_P2;PMS_P1;PMS_P2;Temp;Humidity;BMP_temperature;BMP_pressure;BME280_temperature;BME280_humidity;BME280_pressure;Samples;Min_cycle;Max_cycle;Signal;HPM_P1;HPM_P2
2023/06/29 00:00:14;;;;;;;6.57;1.73;;;;;;;19.23;73.37;100713.66;4897744;29;20051;-73
2023/06/29 00:03:19;;;;;;;5.00;1.80;;;;;;;19.26;72.25;100721.38;4897422;29;20088;-73
2023/06/29 00:06:23;;;;;;;3.20;1.70;;;;;;;19.26;72.18;100711.59;4897516;29;20153;-74
2023/06/29 00:09:26;;;;;;;6.03;1.85;;;;;;;19.18;71.94;100716.72;4897562;29;20123;-73
2023/06/29 00:12:33;;;;;;;5.05;1.70;;;;;;;19.08;73.10;100715.84;4897434;29;20056;-74
2023/06/29 00:15:37;;;;;;;6.82;2.60;;;;;;;18.94;74.03;100710.84;4891678;29;20043;-73
2023/06/29 00:18:44;;;;;;;5.28;1.88;;;;;;;18.74;74.17;100708.06;4897244;29;20167;-74
2023/06/29 00:21:48;;;;;;;4.40;1.95;;;;;;;18.63;74.31;100712.53;4897410;29;20044;-74
2023/06/29 00:24:56;;;;;;;4.38;2.45;;;;;;;18.54;74.98;100711.53;4897299;29;20119;-74
2023/06/29 00:28:03;;;;;;;4.82;2.20;;;;;;;18.40;75.31;100715.28;4897369;29;20467;-74
2023/06/29 00:31:36;;;;;;;4.50;2.08;;;;;;;18.33;75.51;100711.47;4897510;29;20419;-74
2023/06/29 00:34:40;;;;;;;4.63;2.50;;;;;;;18.23;76.11;100711.38;4888129;29;20112;-75
2023/06/29 00:37:45;;;;;;;8.30;2.40;;;;;;;18.19;76.46;100709.94;4900824;29;20541;-75
2023/06/29 00:41:39;;;;;;;4.78;2.08;;;;;;;18.16;76.85;100714.66;4889180;29;20055;-75
2023/06/29 00:49:18;;;;;;;6.13;2.33;;;;;;;18.00;77.55;100715.06;4900655;29;20055;-74
2023/06/29 00:56:45;;;;;;;5.30;2.03;;;;;;;17.93;78.40;100711.19;4900452;29;19926;-74
2023/06/29 01:00:00;;;;;;;3.60;2.10;;;;;;;17.95;78.17;100704.00;4878730;29;20043;-75
2023/06/29 01:03:23;;;;;;;6.18;2.10;;;;;;;17.93;78.42;100703.25;4889535;29;20235;-74
2023/06/29 01:06:34;;;;;;;3.05;1.90;;;;;;;17.95;78.52;100702.19;4900377;29;20088;-74
2023/06/29 01:09:46;;;;;;;4.13;2.08;;;;;;;18.00;79.03;100709.75;4900487;29;20044;-74
2023/06/29 01:13:10;;;;;;;3.90;2.00;;;;;;;17.97;78.71;100710.00;4900184;29;20407;-74
2023/06/29 01:16:17;;;;;;;5.50;2.40;;;;;;;17.97;78.95;100710.00;4900123;29;20047;-74
2023/06/29 01:19:25;;;;;;;11.02;2.55;;;;;;;17.98;78.99;100706.38;4888327;29;20581;-74
2023/06/29 01:22:35;;;;;;;7.68;2.30;;;;;;;17.96;79.21;100710.94;4899609;29;20047;-74
2023/06/29 01:25:43;;;;;;;5.38;2.35;;;;;;;17.87;79.91;100712.56;4888346;29;20035;-73
2023/06/29 01:28:51;;;;;;;3.85;2.15;;;;;;;17.77;80.62;100704.50;4888473;29;20048;-73
2023/06/29 01:32:03;;;;;;;7.72;2.15;;;;;;;17.84;80.49;100705.69;4899620;29;20047;-73
2023/06/29 01:35:20;;;;;;;4.95;2.47;;;;;;;17.91;80.32;100705.22;4899229;29;20043;-73
2023/06/29 01:38:32;;;;;;;3.25;2.30;;;;;;;17.89;80.33;100703.50;4898748;29;20052;-73
2023/06/29 01:41:40;;;;;;;5.85;2.55;;;;;;;17.82;80.39;100701.50;4888265;29;20055;-73
2023/06/29 01:44:54;;;;;;;3.42;2.22;;;;;;;17.83;80.67;100700.50;4899485;29;20111;-73
2023/06/29 01:48:01;;;;;;;9.57;2.03;;;;;;;17.88;80.42;100701.84;4898847;29;20131;-73
2023/06/29 01:51:07;;;;;;;5.78;2.70;;;;;;;17.91;80.08;100700.75;4887489;29;20083;-73
2023/06/29 01:54:26;;;;;;;6.38;2.22;;;;;;;17.83;80.23;100693.41;4899694;29;20055;-73
2023/06/29 01:57:33;;;;;;;4.40;2.10;;;;;;;17.87;80.16;100697.50;4877605;29;20450;-74
2023/06/29 02:00:37;;;;;;;5.07;2.05;;;;;;;17.86;80.04;100694.97;4899439;29;20044;-74
2023/06/29 02:03:42;;;;;;;4.15;2.10;;;;;;;17.87;80.20;100699.31;4887500;29;20054;-74
2023/06/29 02:07:06;;;;;;;5.50;2.37;;;;;;;17.86;80.17;100692.34;4899125;29;20040;-73
2023/06/29 02:10:36;;;;;;;5.72;2.60;;;;;;;17.86;80.07;100693.16;4887589;29;20177;-73
2023/06/29 02:13:40;;;;;;;3.13;1.92;;;;;;;17.84;80.12;100695.13;4887874;29;20521;-73
2023/06/29 02:21:56;;;;;;;3.28;2.05;;;;;;;17.88;80.07;100687.78;4899168;29;20051;-74
2023/06/29 02:25:00;;;;;;;3.58;2.10;;;;;;;17.89;79.67;100684.16;4898931;29;20096;-74
2023/06/29 02:28:05;;;;;;;4.43;2.28;;;;;;;17.85;79.30;100680.91;4887596;29;20083;-74
2023/06/29 02:31:09;;;;;;;7.10;2.15;;;;;;;17.86;78.93;100672.00;4898869;29;20052;-74
2023/06/29 02:34:13;;;;;;;5.63;2.55;;;;;;;17.82;78.98;100675.88;4898850;29;20055;-74
2023/06/29 02:37:45;;;;;;;6.50;2.75;;;;;;;17.80;78.92;100666.38;4880658;29;20055;-73
2023/06/29 02:41:03;;;;;;;5.50;2.78;;;;;;;17.76;78.90;100671.03;4898425;29;20119;-73
2023/06/29 02:44:09;;;;;;;3.33;1.85;;;;;;;17.74;78.72;100673.00;4887051;29;20537;-74
2023/06/29 02:47:16;;;;;;;3.63;1.98;;;;;;;17.77;78.72;100662.19;4898598;29;20047;-74
2023/06/29 02:50:54;;;;;;;4.63;2.40;;;;;;;17.73;79.00;100668.63;4886142;29;20071;-74
2023/06/29 02:53:59;;;;;;;5.43;2.15;;;;;;;17.74;78.92;100665.06;4886740;29;20080;-74
2023/06/29 02:57:07;;;;;;;5.47;2.17;;;;;;;17.68;78.83;100668.19;4886200;29;20116;-73
2023/06/29 03:00:15;;;;;;;4.82;1.90;;;;;;;17.69;79.35;100658.44;4875018;29;20274;-73
2023/06/29 03:03:22;;;;;;;3.55;2.15;;;;;;;17.71;78.72;100657.38;4901495;29;20410;-74
2023/06/29 03:06:54;;;;;;;4.75;2.38;;;;;;;17.73;79.15;100657.22;4914229;29;20054;-73
2023/06/29 03:10:10;;;;;;;6.50;2.25;;;;;;;17.69;79.53;100659.28;4917131;29;20075;-80
2023/06/29 03:13:15;;;;;;;4.60;2.28;;;;;;;17.58;80.12;100654.84;4917248;29;20090;-79
2023/06/29 03:16:20;;;;;;;4.30;2.05;;;;;;;17.53;80.61;100658.81;4916088;29;20497;-79
2023/06/29 03:19:24;;;;;;;7.32;2.60;;;;;;;17.48;80.97;100656.53;4898064;29;20101;-79
2023/06/29 03:22:28;;;;;;;4.00;2.28;;;;;;;17.55;80.53;100646.31;4898213;29;20176;-79
2023/06/29 03:25:34;;;;;;;3.72;2.20;;;;;;;17.64;80.17;100650.84;4898133;29;20459;-79
2023/06/29 03:28:41;;;;;;;5.35;2.63;;;;;;;17.68;79.87;100647.03;4898262;29;20619;-79
2023/06/29 03:31:46;;;;;;;4.53;2.15;;;;;;;17.64;79.66;100653.50;4897804;29;20044;-79
2023/06/29 03:35:07;;;;;;;4.38;2.60;;;;;;;17.66;79.46;100648.94;4886100;29;20108;-79
2023/06/29 03:38:25;;;;;;;4.55;2.60;;;;;;;17.70;78.91;100645.09;4897841;29;20163;-74
2023/06/29 03:46:39;;;;;;;4.50;2.03;;;;;;;17.64;79.48;100642.94;4905659;29;20115;-76
2023/06/29 03:50:09;;;;;;;3.20;1.92;;;;;;;17.65;79.44;100647.28;4916801;29;20111;-77
2023/06/29 03:53:46;;;;;;;5.75;2.53;;;;;;;17.75;78.97;100634.16;4916802;29;20055;-77
2023/06/29 03:57:16;;;;;;;4.30;2.03;;;;;;;17.85;77.32;100633.31;4916424;29;20402;-75
2023/06/29 04:00:27;;;;;;;4.88;2.00;;;;;;;17.81;77.28;100636.34;4916459;29;20557;-74
2023/06/29 04:03:34;;;;;;;4.55;2.42;;;;;;;17.80;77.21;100630.19;4905342;29;20578;-77
2023/06/29 04:06:48;;;;;;;4.68;2.20;;;;;;;17.65;78.56;100636.69;4916728;29;20135;-79
2023/06/29 04:10:16;;;;;;;3.88;2.20;;;;;;;17.66;78.81;100633.09;4919862;29;20047;-73
2023/06/29 04:13:21;;;;;;;3.65;1.92;;;;;;;17.70;78.67;100633.66;4920475;29;20099;-76
2023/06/29 04:16:28;;;;;;;4.18;2.10;;;;;;;17.85;77.84;100635.13;4920041;29;20043;-73
2023/06/29 04:19:32;;;;;;;4.57;2.10;;;;;;;17.95;77.08;100630.75;4920374;29;20107;-73
2023/06/29 04:22:39;;;;;;;5.10;2.00;;;;;;;18.03;76.49;100630.16;4908903;29;20198;-75
2023/06/29 04:25:43;;;;;;;6.47;2.33;;;;;;;18.03;76.74;100630.16;4920264;29;20074;-74
2023/06/29 04:29:06;;;;;;;3.83;2.22;;;;;;;18.02;76.36;100633.72;4920036;29;20051;-74
2023/06/29 04:32:11;;;;;;;6.50;2.20;;;;;;;17.96;77.12;100623.66;4897303;29;20051;-81
2023/06/29 04:35:23;;;;;;;10.60;2.72;;;;;;;17.97;76.35;100626.19;4918782;29;20103;-76
2023/06/29 04:38:27;;;;;;;4.35;2.00;;;;;;;18.06;76.25;100621.94;4919608;29;20070;-77
2023/06/29 04:46:06;;;;;;;5.28;2.63;;;;;;;18.33;75.26;100611.72;4917933;29;20103;-74
2023/06/29 04:49:10;;;;;;;4.40;2.17;;;;;;;18.45;74.94;100614.31;4898932;29;20039;-75
2023/06/29 04:52:18;;;;;;;4.60;2.45;;;;;;;18.49;74.52;100615.72;4917163;29;20138;-76
2023/06/29 04:55:44;;;;;;;5.18;2.60;;;;;;;18.44;74.93;100602.88;4908736;29;20111;-75
2023/06/29 04:58:47;;;;;;;5.95;2.35;;;;;;;18.53;74.73;100607.38;4918760;29;20107;-75
2023/06/29 05:01:54;;;;;;;5.90;2.50;;;;;;;18.61;74.54;100601.47;4919280;29;20043;-76
2023/06/29 05:05:01;;;;;;;4.72;2.25;;;;;;;18.67;74.05;100600.94;4907645;29;20426;-76
2023/06/29 05:08:06;;;;;;;5.10;2.35;;;;;;;18.72;74.04;100601.41;4919239;29;20171;-76
2023/06/29 05:11:09;;;;;;;4.97;2.40;;;;;;;18.72;74.18;100604.03;4919244;29;20047;-75
2023/06/29 05:14:12;;;;;;;5.60;2.40;;;;;;;18.77;74.34;100587.78;4919289;29;20119;-76
2023/06/29 05:17:17;;;;;;;4.57;2.42;;;;;;;18.80;74.54;100591.00;4918074;29;20046;-76
2023/06/29 05:20:20;;;;;;;4.75;2.38;;;;;;;18.78;75.11;100589.44;4916460;29;20055;-75
2023/06/29 05:23:24;;;;;;;5.95;2.80;;;;;;;18.79;75.27;100597.28;4917473;29;20132;-76
2023/06/29 05:26:27;;;;;;;4.68;2.28;;;;;;;18.78;75.38;100595.56;4906296;29;20426;-76
2023/06/29 05:29:31;;;;;;;4.47;2.13;;;;;;;18.83;75.13;100599.66;4918513;29;20512;-75
2023/06/29 05:32:41;;;;;;;4.90;2.45;;;;;;;18.81;75.61;100595.31;4919031;29;20054;-77
2023/06/29 05:36:43;;;;;;;4.65;2.53;;;;;;;18.70;76.59;100598.03;4896079;29;20043;-76
2023/06/29 05:40:17;;;;;;;4.18;2.92;;;;;;;18.62;76.74;100600.47;4899932;29;20167;-76
2023/06/29 05:43:21;;;;;;;5.43;2.40;;;;;;;18.74;77.69;100599.47;4899182;29;20043;-76
2023/06/29 05:46:24;;;;;;;5.85;2.60;;;;;;;18.78;75.96;100600.88;4895986;29;20051;-78
2023/06/29 05:49:28;;;;;;;3.90;2.35;;;;;;;18.85;74.64;100603.00;4887790;29;20056;-77
2023/06/29 05:52:33;;;;;;;5.85;2.40;;;;;;;18.92;74.30;100596.19;4898651;29;20076;-76
2023/06/29 05:55:36;;;;;;;5.55;2.67;;;;;;;18.93;74.84;100595.25;4899257;29;20517;-76
2023/06/29 05:58:40;;;;;;;7.35;2.78;;;;;;;19.01;74.69;100590.09;4887513;29;20048;-75
2023/06/29 06:01:43;;;;;;;5.25;2.70;;;;;;;19.13;74.07;100596.16;4899230;29;20514;-75
2023/06/29 06:04:47;;;;;;;5.22;2.72;;;;;;;19.24;73.35;100598.69;4898757;29;20124;-74
2023/06/29 06:07:50;;;;;;;7.35;2.80;;;;;;;19.32;71.96;100596.22;4898906;29;20060;-74
2023/06/29 06:10:53;;;;;;;5.07;2.60;;;;;;;19.34;72.04;100598.75;4898971;29;20128;-74
2023/06/29 06:13:56;;;;;;;7.38;2.63;;;;;;;19.45;72.30;100598.63;4898252;29;20144;-74
2023/06/29 06:17:50;;;;;;;5.93;2.60;;;;;;;19.54;71.60;100595.16;4898334;29;20080;-73
2023/06/29 06:20:54;;;;;;;6.63;3.17;;;;;;;19.63;70.91;100596.19;4898128;29;20079;-77
2023/06/29 06:23:57;;;;;;;4.95;2.78;;;;;;;19.66;70.30;100599.41;4898825;29;20052;-78
2023/06/29 06:27:01;;;;;;;6.13;2.55;;;;;;;19.71;69.64;100589.22;4898180;29;20083;-77
2023/06/29 06:30:05;;;;;;;13.50;2.80;;;;;;;19.82;68.70;100590.09;4897942;29;20111;-76
2023/06/29 06:33:08;;;;;;;4.68;2.67;;;;;;;19.92;69.21;100586.47;4897917;29;20051;-76
2023/06/29 06:36:12;;;;;;;7.32;2.67;;;;;;;20.00;68.56;100585.75;4902878;29;20052;-76
2023/06/29 06:39:15;;;;;;;6.80;2.50;;;;;;;20.05;69.01;100575.56;4897445;29;20084;-77
2023/06/29 06:42:18;;;;;;;4.32;2.40;;;;;;;20.10;68.63;100578.66;4897377;29;20080;-76
2023/06/29 06:45:21;;;;;;;5.38;2.70;;;;;;;20.20;67.73;100582.13;4897383;29;20086;-77
2023/06/29 06:48:26;;;;;;;5.07;2.30;;;;;;;20.24;67.46;100574.72;4898097;29;20056;-76
2023/06/29 06:51:29;;;;;;;6.72;2.50;;;;;;;20.32;67.60;100581.97;4884428;29;20427;-75
2023/06/29 06:54:32;;;;;;;5.00;2.67;;;;;;;20.37;67.50;100583.22;4896275;29;20127;-75
2023/06/29 06:57:36;;;;;;;7.15;2.25;;;;;;;20.50;67.20;100579.44;4914160;29;20051;-75
2023/06/29 07:00:40;;;;;;;9.55;2.53;;;;;;;20.56;67.14;100574.41;4916422;29;20139;-76
2023/06/29 07:03:43;;;;;;;7.30;2.95;;;;;;;20.68;67.04;100575.09;4914526;29;20107;-76
2023/06/29 07:06:46;;;;;;;4.93;2.80;;;;;;;20.76;66.74;100574.34;4915159;29;20055;-74
2023/06/29 07:09:49;;;;;;;4.78;2.97;;;;;;;20.83;66.16;100570.13;4916178;29;20050;-74
2023/06/29 07:12:53;;;;;;;5.30;2.45;;;;;;;20.82;64.98;100573.78;4916520;29;20132;-75
2023/06/29 07:15:56;;;;;;;4.07;2.30;;;;;;;20.86;65.08;100568.00;4911408;29;20461;-75
2023/06/29 07:19:13;;;;;;;6.25;2.80;;;;;;;20.90;64.66;100568.59;4916080;29;20127;-74
2023/06/29 07:22:17;;;;;;;4.38;2.72;;;;;;;20.87;65.01;100566.22;4915797;29;20062;-77
2023/06/29 07:25:21;;;;;;;4.80;2.90;;;;;;;20.97;64.47;100566.19;4916230;29;20239;-75
2023/06/29 07:28:24;;;;;;;4.35;1.90;;;;;;;20.81;64.74;100564.13;4916524;29;20069;-76
2023/06/29 07:31:29;;;;;;;4.38;2.55;;;;;;;20.78;64.64;100569.75;4916038;29;20047;-76
2023/06/29 07:34:33;;;;;;;9.73;2.30;;;;;;;20.88;64.93;100558.09;4904845;29;20180;-75
2023/06/29 07:37:36;;;;;;;3.80;2.33;;;;;;;20.98;65.40;100546.56;4903953;29;20127;-75
2023/06/29 07:40:39;;;;;;;7.18;2.88;;;;;;;21.13;64.76;100551.25;4897813;29;20048;-76
2023/06/29 07:43:48;;;;;;;6.53;2.40;;;;;;;21.25;64.78;100548.38;4896978;29;20414;-75
2023/06/29 07:46:51;;;;;;;6.40;2.83;;;;;;;21.32;64.56;100560.13;4895987;29;20776;-75
2023/06/29 07:49:55;;;;;;;6.88;2.70;;;;;;;21.33;64.28;100551.16;4897441;29;20078;-76
2023/06/29 07:52:58;;;;;;;7.63;2.47;;;;;;;21.43;64.31;100551.94;4896591;29;20128;-75
2023/06/29 07:56:02;;;;;;;5.78;2.55;;;;;;;21.45;64.03;100549.16;4897303;29;20131;-75
2023/06/29 07:59:44;;;;;;;4.18;2.30;;;;;;;21.60;63.67;100547.63;4897464;29;20051;-75
2023/06/29 08:02:49;;;;;;;4.13;2.30;;;;;;;21.64;63.37;100549.03;4880291;29;20043;-75
2023/06/29 08:05:52;;;;;;;4.13;2.65;;;;;;;21.74;62.89;100543.63;4896864;29;20103;-76
2023/06/29 08:08:55;;;;;;;4.43;2.78;;;;;;;21.70;63.72;100540.44;4916064;29;20413;-75
2023/06/29 08:11:59;;;;;;;6.97;2.40;;;;;;;21.70;63.47;100543.09;4904436;29;20127;-75
2023/06/29 08:15:02;;;;;;;4.03;2.50;;;;;;;21.84;62.69;100533.72;4915450;29;20050;-76
2023/06/29 08:18:05;;;;;;;5.45;2.50;;;;;;;21.86;62.58;100533.56;4902552;29;20432;-75
2023/06/29 08:21:10;;;;;;;3.63;1.95;;;;;;;21.90;63.12;100532.28;4915001;29;20188;-76
2023/06/29 08:24:14;;;;;;;5.10;2.20;;;;;;;21.98;63.08;100530.50;4915451;29;20051;-75
2023/06/29 08:27:19;;;;;;;4.72;2.50;;;;;;;22.11;63.00;100532.78;4913611;29;20055;-76
2023/06/29 08:30:22;;;;;;;4.88;2.47;;;;;;;22.22;62.16;100523.75;4902918;29;20059;-75
2023/06/29 08:33:25;;;;;;;3.35;2.03;;;;;;;22.29;61.72;100525.63;4915584;29;20059;-73
2023/06/29 08:36:29;;;;;;;4.30;2.22;;;;;;;;;;4915235;29;20096;-73
2023/06/29 08:39:32;;;;;;;4.20;1.92;;;;;;;22.37;62.01;100527.53;4903177;29;20051;-74
2023/06/29 08:42:39;;;;;;;4.38;2.10;;;;;;;22.30;62.01;100518.47;4916266;29;20050;-73
2023/06/29 08:45:43;;;;;;;6.18;2.28;;;;;;;22.42;61.69;100519.88;4916155;29;20043;-73
2023/06/29 08:48:47;;;;;;;7.78;1.95;;;;;;;22.40;60.43;100513.03;4916237;29;20116;-73
2023/06/29 08:52:05;;;;;;;4.72;2.03;;;;;;;22.42;60.36;100511.88;4914935;29;20086;-74
2023/06/29 08:55:12;;;;;;;6.45;2.30;;;;;;;22.47;60.57;100509.59;4905041;29;20053;-75
2023/06/29 08:58:15;;;;;;;4.35;1.88;;;;;;;22.46;60.21;100507.94;4918687;29;20046;-75
2023/06/29 09:01:19;;;;;;;4.85;2.38;;;;;;;22.61;60.11;100508.16;4918949;29;20082;-75
2023/06/29 09:04:22;;;;;;;3.83;1.83;;;;;;;22.74;60.73;100507.72;4917662;29;20525;-75
2023/06/29 09:07:25;;;;;;;3.60;1.60;;;;;;;22.80;59.44;100507.09;4917876;29;20513;-75
2023/06/29 09:10:29;;;;;;;4.63;1.92;;;;;;;23.01;58.80;100500.56;4917827;29;20103;-75
2023/06/29 09:13:36;;;;;;;4.22;2.00;;;;;;;23.03;58.96;100498.53;4906533;29;20051;-75
2023/06/29 09:16:54;;;;;;;4.10;1.83;;;;;;;23.06;58.88;100498.22;4917820;29;20079;-75
2023/06/29 09:20:00;;;;;;;5.03;1.73;;;;;;;23.15;59.03;100491.91;4915578;29;20124;-75
2023/06/29 09:23:06;;;;;;;3.85;2.10;;;;;;;23.18;58.10;100486.25;4917550;29;20050;-75
2023/06/29 09:26:09;;;;;;;78.18;8.00;;;;;;;23.23;58.24;100494.63;4917939;29;20073;-76
2023/06/29 09:29:13;;;;;;;30.40;4.40;;;;;;;23.32;57.23;100487.44;4917564;29;20050;-76
2023/06/29 09:32:16;;;;;;;3.63;1.65;;;;;;;23.21;53.83;100485.94;4918613;29;20051;-75
2023/06/29 09:35:22;;;;;;;5.13;1.77;;;;;;;23.11;53.13;100486.06;4916600;29;20171;-75
2023/06/29 09:38:30;;;;;;;3.75;1.70;;;;;;;23.08;51.78;100483.75;4909588;29;20051;-75
2023/06/29 09:41:49;;;;;;;6.07;1.60;;;;;;;23.09;52.54;100479.22;4899662;29;20104;-75
2023/06/29 09:44:52;;;;;;;4.82;1.30;;;;;;;23.18;51.60;100480.94;4898701;29;20075;-76
2023/06/29 09:47:55;;;;;;;5.60;1.80;;;;;;;23.26;51.53;100480.09;4912608;29;20094;-76
2023/06/29 09:50:59;;;;;;;3.85;1.60;;;;;;;23.32;51.44;100476.78;4917102;29;20059;-76
2023/06/29 09:54:02;;;;;;;3.90;1.30;;;;;;;23.22;50.67;100492.94;4916591;29;20058;-76
2023/06/29 09:57:07;;;;;;;2.92;1.35;;;;;;;23.22;50.71;100484.94;4911319;29;20111;-75
2023/06/29 10:00:12;;;;;;;5.95;1.73;;;;;;;23.42;51.06;100478.31;4886628;29;20043;-76
2023/06/29 10:03:20;;;;;;;4.55;1.80;;;;;;;23.55;49.91;100471.66;4899466;29;20055;-76
2023/06/29 10:06:38;;;;;;;3.83;1.67;;;;;;;23.50;49.89;100474.81;4899041;29;20043;-74
2023/06/29 10:09:47;;;;;;;3.38;1.40;;;;;;;23.56;49.99;100473.31;4899659;29;20151;-75
2023/06/29 10:12:54;;;;;;;3.55;1.10;;;;;;;23.42;49.41;100467.66;4899282;29;20047;-75
2023/06/29 10:16:01;;;;;;;4.07;1.65;;;;;;;23.35;50.28;100465.78;4898482;29;20120;-77
2023/06/29 10:19:14;;;;;;;5.95;1.80;;;;;;;23.51;49.67;100459.63;4899158;29;20186;-76
2023/06/29 10:22:18;;;;;;;3.35;1.55;;;;;;;23.70;49.74;100461.16;4899091;29;20206;-76
2023/06/29 10:25:23;;;;;;;3.90;2.00;;;;;;;23.76;48.84;100464.00;4899276;29;20423;-76
2023/06/29 10:28:27;;;;;;;5.47;1.50;;;;;;;23.92;48.51;100457.81;4899133;29;20428;-77
2023/06/29 10:31:34;;;;;;;3.78;1.85;;;;;;;23.73;49.13;100464.34;4898873;29;20091;-76
2023/06/29 10:35:04;;;;;;;4.13;1.75;;;;;;;23.69;49.24;100451.50;4887126;29;20413;-78
2023/06/29 10:38:11;;;;;;;4.40;1.80;;;;;;;23.63;49.57;100456.47;4898721;29;20196;-75
2023/06/29 10:41:28;;;;;;;4.05;1.50;;;;;;;23.85;49.57;100441.63;4898640;29;20047;-75
2023/06/29 10:44:34;;;;;;;8.88;2.03;;;;;;;23.92;51.65;100444.47;4887362;29;20411;-77
2023/06/29 10:47:39;;;;;;;5.20;1.80;;;;;;;23.79;48.47;100442.31;4897187;29;20096;-79
2023/06/29 10:50:47;;;;;;;4.53;2.03;;;;;;;23.90;49.35;100447.31;4897166;29;20131;-78
2023/06/29 10:53:50;;;;;;;4.88;2.13;;;;;;;23.94;50.42;100444.31;4898103;29;20059;-78
2023/06/29 10:56:57;;;;;;;5.57;2.40;;;;;;;24.01;48.53;100446.13;4895966;29;20120;-78
2023/06/29 11:00:01;;;;;;;4.32;1.95;;;;;;;24.09;48.91;100434.56;4896726;29;20056;-75
2023/06/29 11:03:05;;;;;;;5.18;2.38;;;;;;;24.15;47.96;100428.56;4898252;29;20055;-77
2023/06/29 11:06:08;;;;;;;4.78;2.10;;;;;;;24.04;48.88;100435.09;4898554;29;20054;-74
2023/06/29 11:09:13;;;;;;;5.63;2.05;;;;;;;23.99;49.77;100428.59;4898045;29;20422;-71
2023/06/29 11:12:16;;;;;;;8.00;2.95;;;;;;;23.99;49.58;100428.59;4898196;29;20131;-71
2023/06/29 11:15:21;;;;;;;4.28;2.30;;;;;;;24.04;49.20;100423.59;4898277;29;20144;-77
2023/06/29 11:18:30;;;;;;;5.47;2.58;;;;;;;24.09;49.28;100423.91;4897289;29;20177;-78
2023/06/29 11:21:34;;;;;;;5.88;2.80;;;;;;;24.01;48.84;100429.28;4898168;29;20131;-79
2023/06/29 11:24:41;;;;;;;9.00;3.10;;;;;;;23.99;49.20;100431.28;4904371;29;20067;-79
2023/06/29 11:27:45;;;;;;;4.00;2.20;;;;;;;23.91;49.26;100429.47;4907207;29;20614;-80
2023/06/29 11:30:49;;;;;;;5.65;2.15;;;;;;;23.82;49.43;100425.94;4905188;29;20413;-79
2023/06/29 11:33:53;;;;;;;5.82;2.67;;;;;;;23.64;50.14;100422.59;4905162;29;20047;-79
2023/06/29 11:36:57;;;;;;;4.97;2.47;;;;;;;23.76;50.00;100431.13;4907763;29;20128;-79
2023/06/29 11:40:07;;;;;;;5.13;2.33;;;;;;;23.63;50.33;100426.28;4908505;29;20047;-79
2023/06/29 11:43:15;;;;;;;4.38;2.00;;;;;;;23.71;49.68;100425.44;4904537;29;20067;-81
2023/06/29 11:46:22;;;;;;;6.05;2.45;;;;;;;23.61;50.11;100429.13;4897110;29;20092;-78
2023/06/29 11:49:25;;;;;;;7.72;2.28;;;;;;;23.69;49.89;100419.47;4897589;29;20048;-78
2023/06/29 11:52:33;;;;;;;5.07;2.47;;;;;;;23.60;50.73;100426.59;4897594;29;20124;-77
2023/06/29 11:55:36;;;;;;;6.43;2.17;;;;;;;23.80;50.57;100419.97;4897768;29;20084;-78
2023/06/29 11:58:42;;;;;;;4.72;2.20;;;;;;;23.94;50.27;100420.28;4897323;29;20104;-81
2023/06/29 12:01:49;;;;;;;6.13;2.58;;;;;;;23.99;50.40;100415.25;4897821;29;20459;-79
2023/06/29 12:04:54;;;;;;;5.57;2.80;;;;;;;24.21;50.26;100419.88;4885827;29;20051;-80
2023/06/29 12:08:04;;;;;;;6.20;2.70;;;;;;;24.20;49.92;100412.88;4897487;29;20055;-83
2023/06/29 12:11:15;;;;;;;7.10;2.63;;;;;;;24.24;50.36;100402.66;4908394;29;20051;-78
2023/06/29 12:14:19;;;;;;;5.45;2.78;;;;;;;24.24;50.85;100405.34;4916362;29;20107;-79
2023/06/29 12:17:23;;;;;;;4.65;2.40;;;;;;;24.35;50.00;100408.47;4916642;29;20043;-78
2023/06/29 12:20:26;;;;;;;6.13;2.40;;;;;;;24.36;49.86;100406.63;4902662;29;20071;-78
2023/06/29 12:23:29;;;;;;;5.45;2.33;;;;;;;24.39;49.73;100405.47;4904880;29;20139;-76
2023/06/29 12:26:33;;;;;;;6.65;2.50;;;;;;;24.34;49.89;100395.28;4915569;29;20099;-77
2023/06/29 12:29:38;;;;;;;7.43;2.67;;;;;;;24.39;49.14;100405.47;4903775;29;20039;-76
2023/06/29 12:32:45;;;;;;;5.47;2.88;;;;;;;24.37;49.21;100409.13;4903508;29;20079;-81
2023/06/29 12:35:49;;;;;;;4.97;2.40;;;;;;;24.62;49.50;100385.00;4918470;29;20048;-77
2023/06/29 12:39:19;;;;;;;5.40;2.80;;;;;;;24.74;48.91;100401.50;4908094;29;20123;-85
2023/06/29 12:42:39;;;;;;;5.22;3.17;;;;;;;24.58;47.87;100389.88;4909268;29;20043;-78
2023/06/29 12:45:48;;;;;;;7.57;2.65;;;;;;;24.81;48.15;100387.22;4919439;29;20135;-82
2023/06/29 12:48:51;;;;;;;5.22;2.92;;;;;;;24.83;47.67;100382.56;4919528;29;20055;-78
2023/06/29 12:51:55;;;;;;;5.25;2.90;;;;;;;24.59;48.68;100382.69;4917535;29;20058;-80
2023/06/29 12:54:59;;;;;;;5.80;2.92;;;;;;;24.88;48.16;100379.34;4905641;29;20051;-81
2023/06/29 12:58:03;;;;;;;6.10;3.10;;;;;;;24.81;47.63;100379.22;4919403;29;20059;-81
2023/06/29 13:01:07;;;;;;;5.35;3.67;;;;;;;24.76;47.62;100381.59;4919386;29;20112;-80
2023/06/29 13:04:10;;;;;;;6.85;3.08;;;;;;;24.44;48.20;100389.75;4919451;29;20047;-78
2023/06/29 13:07:17;;;;;;;6.38;3.17;;;;;;;24.83;47.70;100377.19;4919522;29;20548;-77
2023/06/29 13:10:21;;;;;;;13.02;4.90;;;;;;;25.08;48.76;100374.38;4907438;29;20050;-79
2023/06/29 13:13:24;;;;;;;6.50;3.30;;;;;;;25.00;47.26;100374.41;4918113;29;20051;-76
2023/06/29 13:16:28;;;;;;;4.80;3.22;;;;;;;25.12;46.85;100369.50;4919067;29;20047;-75
2023/06/29 13:19:32;;;;;;;5.80;3.45;;;;;;;25.17;46.58;100367.13;4919116;29;20135;-75
2023/06/29 13:22:35;;;;;;;5.78;3.58;;;;;;;25.06;46.50;100366.50;4918934;29;20046;-78
2023/06/29 13:25:38;;;;;;;7.40;4.35;;;;;;;24.96;47.17;100359.75;4918995;29;20462;-78
2023/06/29 13:28:41;;;;;;;5.55;3.15;;;;;;;24.94;47.12;100361.75;4918418;29;20042;-78
2023/06/29 13:31:45;;;;;;;6.32;3.70;;;;;;;24.80;47.53;100366.84;4917518;29;20051;-77
2023/06/29 13:34:51;;;;;;;8.50;4.20;;;;;;;24.81;47.80;100357.81;4918854;29;20051;-77
2023/06/29 13:37:54;;;;;;;5.40;3.28;;;;;;;24.77;47.84;100356.50;4918810;29;20054;-77
2023/06/29 13:40:58;;;;;;;7.68;3.92;;;;;;;24.86;47.04;100357.31;4917969;29;20116;-76
2023/06/29 13:44:02;;;;;;;11.00;3.95;;;;;;;24.74;47.55;100353.34;4918988;29;20529;-77
2023/06/29 13:47:05;;;;;;;6.03;3.58;;;;;;;24.82;47.36;100343.47;4918516;29;20410;-76
2023/06/29 13:50:34;;;;;;;8.60;3.78;;;;;;;24.80;47.05;100340.13;4918609;29;20043;-77
2023/06/29 13:53:38;;;;;;;6.70;3.80;;;;;;;24.72;47.66;100344.66;4917070;29;20175;-76
2023/06/29 13:56:42;;;;;;;6.25;3.88;;;;;;;24.52;47.62;100349.63;4917709;29;20454;-77
2023/06/29 13:59:46;;;;;;;6.07;3.65;;;;;;;24.69;47.62;100343.19;4917586;29;20055;-77
2023/06/29 14:02:50;;;;;;;8.18;3.60;;;;;;;24.60;48.21;100336.22;4917590;29;20458;-78
2023/06/29 14:05:55;;;;;;;6.00;3.53;;;;;;;24.66;47.98;100332.84;4917958;29;20047;-78
2023/06/29 14:08:59;;;;;;;9.80;4.15;;;;;;;24.59;47.48;100326.53;4918231;29;20094;-77
2023/06/29 14:12:08;;;;;;;4.90;3.40;;;;;;;24.61;47.81;100318.34;4906649;29;20072;-77
2023/06/29 14:15:11;;;;;;;6.07;3.78;;;;;;;24.59;48.25;100323.88;4906465;29;20062;-77
2023/06/29 14:18:14;;;;;;;8.38;4.22;;;;;;;24.62;48.56;100328.84;4918074;29;20070;-77
2023/06/29 14:21:18;;;;;;;8.05;3.95;;;;;;;24.75;49.58;100334.44;4906304;29;20067;-76
2023/06/29 14:24:21;;;;;;;7.38;4.18;;;;;;;24.68;52.24;100330.81;4916208;29;20192;-77
2023/06/29 14:27:27;;;;;;;7.50;4.10;;;;;;;24.54;52.59;100335.09;4917898;29;20043;-77
2023/06/29 14:30:33;;;;;;;6.65;3.65;;;;;;;24.50;54.49;100339.09;4918068;29;20090;-78
2023/06/29 14:33:38;;;;;;;6.40;3.67;;;;;;;24.43;51.87;100332.81;4906373;29;20074;-78
2023/06/29 14:36:41;;;;;;;7.15;4.20;;;;;;;24.56;51.63;100324.22;4915922;29;20108;-77
2023/06/29 14:39:46;;;;;;;7.97;4.03;;;;;;;24.57;50.70;100328.56;4917680;29;20090;-77
2023/06/29 14:42:53;;;;;;;7.05;4.25;;;;;;;24.48;50.64;100332.28;4917070;29;20055;-76
2023/06/29 14:45:57;;;;;;;6.22;3.70;;;;;;;24.50;49.63;100323.06;4905474;29;20051;-78
2023/06/29 14:49:00;;;;;;;7.30;4.72;;;;;;;24.66;49.57;100322.13;4917120;29;20524;-77
2023/06/29 14:52:04;;;;;;;8.77;5.30;;;;;;;24.65;48.04;100322.34;4917044;29;20131;-78
2023/06/29 14:55:12;;;;;;;7.13;4.60;;;;;;;24.54;47.72;100323.56;4916012;29;20051;-77
2023/06/29 14:58:16;;;;;;;6.82;4.47;;;;;;;24.64;47.71;100318.84;4917343;29;20730;-75